Time;durP1;ratioP1;P1;durP2;ratioP2;P2;SDS_P1;SDS_P2;PMS_P1;PMS_P2;Temp;Humidity;BMP_temperature;BMP_pressure;BME280_temperature;BME280_humidity;BME280_pressure;Samples;Min_cycle;Max_cycle;Signal;HPM_P1;HPM_P2
2022/10/06 00:00:43;;;;;;;1.70;1.58;;;19.10;93.20;;;;;;5089490;28;20477;-73
2022/10/06 00:03:09;;;;;;;1.50;1.40;;;19.10;93.30;;;;;;5070934;28;20474;-73
2022/10/06 00:05:34;;;;;;;2.57;1.77;;;19.10;93.10;;;;;;5080204;28;20878;-73
2022/10/06 00:08:01;;;;;;;2.95;1.65;;;18.90;94.60;;;;;;5089552;28;20377;-73
2022/10/06 00:10:27;;;;;;;2.35;1.30;;;18.60;96.00;;;;;;5081811;28;20405;-73
2022/10/06 00:12:53;;;;;;;1.75;1.63;;;18.40;97.40;;;;;;5090696;28;20410;-73
2022/10/06 00:15:22;;;;;;;2.00;1.90;;;18.70;94.90;;;;;;5074059;28;20987;-73
2022/10/06 00:17:47;;;;;;;1.60;1.50;;;19.00;94.30;;;;;;5077872;28;20409;-73
2022/10/06 00:20:13;;;;;;;2.40;1.60;;;19.00;93.80;;;;;;5064922;28;20460;-73
2022/10/06 00:22:42;;;;;;;4.80;1.60;;;19.00;93.70;;;;;;5069693;28;20403;-73
2022/10/06 00:25:10;;;;;;;2.15;1.60;;;18.80;94.60;;;;;;5082117;28;20393;-73
2022/10/06 00:27:39;;;;;;;2.00;1.70;;;18.90;94.60;;;;;;5092894;28;20872;-74
2022/10/06 00:30:10;;;;;;;2.63;1.40;;;19.00;94.90;;;;;;5082661;28;20405;-73
2022/10/06 00:32:36;;;;;;;1.73;1.50;;;19.00;95.50;;;;;;5077917;28;20431;-73
2022/10/06 00:35:02;;;;;;;2.13;1.37;;;19.00;94.80;;;;;;5076833;28;20415;-73
2022/10/06 00:37:28;;;;;;;2.87;1.80;;;18.90;96.00;;;;;;5092515;28;20402;-74
2022/10/06 00:39:54;;;;;;;1.67;1.50;;;18.80;96.60;;;;;;5092918;28;20394;-74
2022/10/06 00:42:26;;;;;;;2.10;1.70;;;18.70;96.40;;;;;;5086843;28;20466;-74
2022/10/06 00:44:52;;;;;;;1.67;1.57;;;18.50;98.40;;;;;;5091420;28;20378;-73
2022/10/06 00:47:21;;;;;;;1.58;1.48;;;18.80;97.20;;;;;;5072859;28;20396;-73
2022/10/06 00:49:47;;;;;;;2.90;1.70;;;18.90;96.80;;;;;;5085554;28;20400;-73
2022/10/06 00:52:21;;;;;;;3.00;1.40;;;19.00;97.00;;;;;;5092725;28;20463;-73
2022/10/06 00:54:47;;;;;;;2.40;1.70;;;19.00;97.20;;;;;;5083427;28;20463;-74
2022/10/06 00:57:13;;;;;;;2.72;2.15;;;18.90;98.00;;;;;;5089930;28;20896;-74
2022/10/06 00:59:39;;;;;;;3.65;1.60;;;18.70;99.50;;;;;;5074391;28;20488;-73
2022/10/06 01:02:09;;;;;;;2.40;2.10;;;18.70;99.90;;;;;;5076021;28;20400;-73
2022/10/06 01:04:40;;;;;;;1.90;1.80;;;18.60;99.90;;;;;;5077766;28;20424;-73
2022/10/06 01:07:06;;;;;;;1.90;1.60;;;18.80;99.90;;;;;;5087122;28;20389;-73
2022/10/06 01:09:32;;;;;;;1.77;1.58;;;19.00;98.90;;;;;;5072271;28;20384;-73
2022/10/06 01:12:01;;;;;;;2.55;1.70;;;18.90;99.90;;;;;;5078582;28;20406;-73
2022/10/06 01:14:28;;;;;;;1.70;1.60;;;18.80;99.90;;;;;;5080956;28;20412;-74
2022/10/06 01:17:09;;;;;;;3.50;2.50;;;18.80;99.80;;;;;;5086853;28;20461;-73
2022/10/06 01:19:55;;;;;;;1.90;1.55;;;18.70;99.90;;;;;;5082359;28;20408;-73
2022/10/06 01:22:34;;;;;;;2.50;2.00;;;18.90;99.90;;;;;;5085336;28;20372;-73
2022/10/06 01:25:00;;;;;;;1.60;1.40;;;18.90;99.90;;;;;;5059586;28;20409;-73
2022/10/06 01:27:29;;;;;;;1.75;1.60;;;18.80;99.90;;;;;;5077803;28;20413;-74
2022/10/06 01:29:55;;;;;;;2.22;1.55;;;18.80;99.90;;;;;;5085653;28;20472;-73
2022/10/06 01:32:23;;;;;;;2.85;1.85;;;18.50;99.90;;;;;;5077081;28;20476;-73
2022/10/06 01:34:49;;;;;;;3.75;1.80;;;18.50;99.90;;;;;;5061441;28;21072;-73
2022/10/06 01:37:14;;;;;;;1.60;1.47;;;18.60;99.90;;;;;;5089876;28;20396;-73
2022/10/06 01:39:40;;;;;;;2.77;1.90;;;18.60;99.90;;;;;;5084775;28;20440;-72
2022/10/06 01:42:06;;;;;;;2.10;1.65;;;18.60;99.90;;;;;;5091771;28;20386;-73
2022/10/06 01:44:31;;;;;;;1.80;1.70;;;18.70;99.90;;;;;;5091550;28;20432;-72
2022/10/06 01:46:57;;;;;;;2.73;1.77;;;18.80;99.90;;;;;;5085445;28;20813;-73
2022/10/06 01:49:22;;;;;;;2.43;1.70;;;18.80;99.90;;;;;;5072741;28;20410;-73
2022/10/06 01:51:49;;;;;;;4.47;2.40;;;18.60;99.90;;;;;;5087458;28;20499;-73
2022/10/06 01:54:15;;;;;;;1.80;1.70;;;18.60;99.90;;;;;;5064855;28;20382;-74
2022/10/06 01:56:41;;;;;;;2.03;1.80;;;18.50;99.90;;;;;;5086972;28;20398;-73
2022/10/06 01:59:06;;;;;;;2.17;1.73;;;18.60;99.90;;;;;;5074173;28;20423;-73
2022/10/06 02:01:32;;;;;;;3.30;1.90;;;18.70;99.90;;;;;;5081093;28;20454;-73
2022/10/06 02:03:57;;;;;;;3.57;1.80;;;18.70;99.90;;;;;;5086420;28;20382;-73
2022/10/06 02:06:23;;;;;;;2.20;1.80;;;18.80;99.90;;;;;;5079932;28;20384;-74
2022/10/06 02:08:48;;;;;;;1.90;1.70;;;18.90;99.90;;;;;;5075663;28;20698;-73
2022/10/06 02:11:14;;;;;;;2.55;1.83;;;18.90;99.90;;;;;;5081321;28;20741;-73
2022/10/06 02:13:40;;;;;;;1.90;1.80;;;18.80;99.90;;;;;;5083909;28;20394;-74
2022/10/06 02:16:07;;;;;;;1.90;1.70;;;18.80;99.90;;;;;;5088164;28;20971;-74
2022/10/06 02:18:34;;;;;;;2.28;1.90;;;18.70;99.90;;;;;;5090987;28;20481;-73
2022/10/06 02:21:01;;;;;;;1.80;1.70;;;18.80;99.90;;;;;;5086774;28;20400;-73
2022/10/06 02:23:28;;;;;;;7.65;2.28;;;18.80;99.90;;;;;;5072420;28;20611;-73
2022/10/06 02:26:01;;;;;;;2.45;1.95;;;18.60;99.90;;;;;;5078178;28;20495;-73
2022/10/06 02:28:27;;;;;;;3.15;1.95;;;18.50;99.90;;;;;;5072029;28;20477;-73
2022/10/06 02:30:53;;;;;;;1.80;1.70;;;18.50;99.90;;;;;;5081051;28;20493;-73
2022/10/06 02:33:19;;;;;;;2.35;1.80;;;18.50;99.90;;;;;;5090414;28;20398;-73
2022/10/06 02:35:44;;;;;;;3.80;2.10;;;18.40;99.90;;;;;;5090547;28;20725;-73
2022/10/06 02:38:10;;;;;;;2.47;2.00;;;18.50;99.90;;;;;;5090686;28;20382;-73
2022/10/06 02:40:35;;;;;;;2.90;2.00;;;18.60;99.90;;;;;;5079351;28;20451;-71
2022/10/06 02:43:01;;;;;;;2.70;1.90;;;18.60;99.90;;;;;;5084918;28;20780;-73
2022/10/06 02:45:26;;;;;;;2.10;1.70;;;18.60;99.90;;;;;;5052693;28;20399;-73
2022/10/06 02:47:55;;;;;;;2.27;1.90;;;18.60;99.90;;;;;;5069984;28;20406;-73
2022/10/06 02:50:21;;;;;;;3.40;2.20;;;18.50;99.90;;;;;;5070124;28;20423;-73
2022/10/06 02:52:47;;;;;;;2.30;2.10;;;18.40;99.90;;;;;;5073474;28;20437;-73
2022/10/06 02:55:12;;;;;;;2.80;1.90;;;18.30;99.90;;;;;;5087162;28;20414;-73
2022/10/06 02:57:38;;;;;;;3.13;1.70;;;18.20;99.90;;;;;;5068920;28;20706;-73
2022/10/06 03:00:07;;;;;;;2.80;1.95;;;18.30;99.90;;;;;;5081869;28;20446;-72
2022/10/06 03:02:33;;;;;;;2.15;1.92;;;18.10;99.90;;;;;;5032082;28;20443;-73
2022/10/06 03:04:59;;;;;;;2.70;2.10;;;18.20;99.90;;;;;;5060927;28;20881;-74
2022/10/06 03:07:24;;;;;;;2.60;2.40;;;18.30;99.90;;;;;;5089298;28;20382;-73
2022/10/06 03:09:50;;;;;;;3.00;2.00;;;18.30;99.90;;;;;;5090226;28;20388;-73
2022/10/06 03:12:15;;;;;;;2.90;1.60;;;18.10;99.90;;;;;;5062164;28;20399;-73
2022/10/06 03:14:41;;;;;;;2.73;2.00;;;18.00;99.90;;;;;;5082717;28;20841;-73
2022/10/06 03:17:08;;;;;;;2.10;1.90;;;18.00;99.90;;;;;;5088576;28;20537;-74
2022/10/06 03:19:36;;;;;;;2.65;2.30;;;17.90;99.90;;;;;;5082841;28;20410;-73
2022/10/06 03:22:02;;;;;;;2.53;2.33;;;17.80;99.90;;;;;;5052825;28;20415;-73
2022/10/06 03:24:28;;;;;;;2.40;2.20;;;17.50;99.90;;;;;;5081482;28;20382;-73
2022/10/06 03:26:53;;;;;;;3.10;2.10;;;17.50;99.90;;;;;;5084266;28;20972;-74
2022/10/06 03:29:19;;;;;;;4.00;2.78;;;17.40;99.90;;;;;;5085013;28;20434;-74
2022/10/06 03:31:45;;;;;;;3.00;2.00;;;17.30;99.90;;;;;;5090212;28;20401;-74
2022/10/06 03:34:12;;;;;;;3.10;2.40;;;17.20;99.90;;;;;;5078799;28;20431;-74
2022/10/06 03:36:37;;;;;;;3.60;2.30;;;17.30;99.90;;;;;;5074851;28;20918;-74
2022/10/06 03:39:05;;;;;;;2.87;2.13;;;17.30;99.90;;;;;;5086639;28;20403;-73
2022/10/06 03:41:32;;;;;;;2.85;2.10;;;16.70;99.90;;;;;;5080636;28;20398;-73
2022/10/06 03:43:58;;;;;;;2.50;2.00;;;16.70;99.90;;;;;;5056028;28;20757;-73
2022/10/06 03:46:26;;;;;;;3.20;2.30;;;16.60;99.90;;;;;;5070119;28;20384;-74
2022/10/06 03:48:52;;;;;;;2.80;2.00;;;16.20;99.90;;;;;;5071755;28;20411;-73
2022/10/06 03:51:28;;;;;;;3.35;2.10;;;15.70;99.90;;;;;;5087731;28;20389;-73
2022/10/06 03:53:54;;;;;;;4.23;2.70;;;15.60;99.90;;;;;;5083815;28;20807;-73
2022/10/06 03:56:21;;;;;;;2.65;2.30;;;15.50;99.90;;;;;;5092653;28;20386;-73
2022/10/06 03:58:59;;;;;;;2.50;2.30;;;15.30;99.90;;;;;;5094050;28;20389;-73
2022/10/06 04:01:27;;;;;;;3.17;2.70;;;15.20;99.90;;;;;;5058329;28;20403;-73
2022/10/06 04:03:54;;;;;;;3.80;2.63;;;15.00;99.90;;;;;;5089897;28;20463;-73
2022/10/06 04:06:20;;;;;;;4.35;2.40;;;14.90;99.90;;;;;;5073885;28;20474;-73
2022/10/06 04:08:47;;;;;;;3.77;2.57;;;14.80;99.90;;;;;;5073550;28;20472;-73
2022/10/06 04:11:14;;;;;;;5.38;2.65;;;14.50;99.90;;;;;;5073663;28;20571;-73
2022/10/06 04:13:41;;;;;;;3.88;2.55;;;14.50;99.90;;;;;;5093047;28;20378;-73
2022/10/06 04:16:14;;;;;;;2.83;2.53;;;14.40;99.90;;;;;;5087839;28;20387;-73
2022/10/06 04:18:41;;;;;;;3.58;2.65;;;14.30;99.90;;;;;;5073395;28;20375;-73
2022/10/06 04:21:07;;;;;;;2.63;2.42;;;14.30;99.90;;;;;;5078039;28;20409;-73
2022/10/06 04:23:35;;;;;;;5.97;2.72;;;14.20;99.90;;;;;;5088681;28;20447;-73
2022/10/06 04:26:02;;;;;;;3.40;2.80;;;14.20;99.90;;;;;;5070992;28;20935;-73
2022/10/06 04:28:28;;;;;;;3.83;2.80;;;14.30;99.90;;;;;;5061572;28;20991;-73
2022/10/06 04:31:00;;;;;;;2.83;2.53;;;14.30;99.90;;;;;;5092838;28;20776;-73
2022/10/06 04:33:27;;;;;;;3.58;2.55;;;14.30;99.90;;;;;;5064791;28;20477;-73
2022/10/06 04:36:07;;;;;;;5.07;2.90;;;14.30;99.90;;;;;;5085148;28;20394;-73
2022/10/06 04:38:36;;;;;;;4.30;2.50;;;14.30;99.90;;;;;;5074133;28;20765;-73
2022/10/06 04:41:11;;;;;;;4.72;3.03;;;14.30;99.90;;;;;;5087241;28;20413;-73
2022/10/06 04:43:37;;;;;;;5.57;2.87;;;14.30;99.90;;;;;;5073136;28;20401;-73
2022/10/06 04:46:03;;;;;;;2.97;2.77;;;14.30;99.90;;;;;;5062343;28;20397;-73
2022/10/06 04:48:30;;;;;;;3.80;3.00;;;14.20;99.90;;;;;;5080495;28;20770;-73
2022/10/06 04:51:08;;;;;;;4.00;3.10;;;14.20;99.90;;;;;;5085035;28;20437;-73
2022/10/06 04:53:34;;;;;;;4.07;3.00;;;14.10;99.90;;;;;;5077141;28;20376;-73
2022/10/06 04:56:09;;;;;;;5.22;3.60;;;14.10;99.90;;;;;;5083680;28;20409;-73
2022/10/06 04:58:37;;;;;;;3.40;3.10;;;14.00;99.90;;;;;;5077162;28;20386;-73
2022/10/06 05:01:10;;;;;;;3.88;3.58;;;13.90;99.90;;;;;;5093108;28;20452;-73
2022/10/06 05:03:37;;;;;;;4.15;3.40;;;13.90;99.90;;;;;;5074836;28;20806;-73
2022/10/06 05:06:09;;;;;;;3.80;3.50;;;14.00;99.90;;;;;;5085361;28;20402;-73
2022/10/06 05:08:35;;;;;;;3.70;3.10;;;13.90;99.90;;;;;;5083814;28;20813;-73
2022/10/06 05:11:06;;;;;;;4.23;3.40;;;13.70;99.90;;;;;;5074972;28;20394;-73
2022/10/06 05:13:32;;;;;;;3.50;3.20;;;13.80;99.90;;;;;;5082272;28;20419;-72
2022/10/06 05:15:59;;;;;;;3.50;3.20;;;13.90;99.90;;;;;;5077569;28;20531;-72
2022/10/06 05:18:25;;;;;;;3.60;3.30;;;14.00;99.90;;;;;;5083591;28;20398;-72
2022/10/06 05:21:14;;;;;;;4.68;4.15;;;13.90;99.90;;;;;;5092737;28;20413;-72
2022/10/06 05:23:41;;;;;;;4.07;3.67;;;13.90;99.90;;;;;;5070304;28;20407;-72
2022/10/06 05:26:09;;;;;;;4.10;3.70;;;13.90;99.90;;;;;;5087236;28;20397;-72
2022/10/06 05:28:34;;;;;;;4.70;3.80;;;13.80;99.90;;;;;;5082068;28;20402;-72
2022/10/06 05:31:01;;;;;;;4.60;3.50;;;13.80;99.90;;;;;;5078803;28;20405;-72
2022/10/06 05:33:29;;;;;;;4.97;3.13;;;13.80;99.90;;;;;;5065524;28;20406;-72
2022/10/06 05:35:57;;;;;;;4.33;3.57;;;13.80;99.90;;;;;;5073123;28;20415;-72
2022/10/06 05:38:23;;;;;;;3.10;2.90;;;13.90;99.90;;;;;;5062381;28;20406;-72
2022/10/06 05:40:49;;;;;;;6.03;3.60;;;13.80;99.90;;;;;;5075470;28;20419;-71
2022/10/06 05:43:16;;;;;;;4.77;3.73;;;13.90;99.90;;;;;;5080440;28;20418;-72
2022/10/06 05:45:55;;;;;;;5.43;3.70;;;13.90;99.90;;;;;;5085630;28;20390;-72
2022/10/06 05:48:21;;;;;;;4.38;3.70;;;13.80;99.90;;;;;;5088141;28;20423;-72
2022/10/06 05:50:48;;;;;;;4.37;3.70;;;13.90;99.90;;;;;;5078221;28;20407;-72
2022/10/06 05:53:14;;;;;;;4.57;3.20;;;13.80;99.90;;;;;;5088763;28;20401;-72
2022/10/06 05:55:39;;;;;;;4.28;3.20;;;13.80;99.90;;;;;;5091859;28;20382;-72
2022/10/06 05:58:05;;;;;;;4.20;3.40;;;13.80;99.90;;;;;;5074660;28;20448;-72
2022/10/06 06:00:30;;;;;;;5.90;3.60;;;13.90;99.90;;;;;;5071230;28;20463;-73
2022/10/06 06:02:56;;;;;;;4.30;3.80;;;13.90;99.90;;;;;;5071361;28;20735;-73
2022/10/06 06:05:21;;;;;;;4.80;3.37;;;14.00;99.90;;;;;;5071445;28;20380;-73
2022/10/06 06:07:47;;;;;;;4.68;3.60;;;14.00;99.90;;;;;;5071275;28;20379;-73
2022/10/06 06:10:12;;;;;;;4.30;3.60;;;14.00;99.90;;;;;;5070388;28;20388;-72
2022/10/06 06:12:38;;;;;;;5.10;3.80;;;14.10;99.90;;;;;;5071027;28;20885;-72
2022/10/06 06:17:48;;;;;;;4.80;3.20;;;14.10;99.90;;;;;;5071410;28;20383;-74
2022/10/06 06:20:13;;;;;;;4.13;3.40;;;14.10;99.90;;;;;;5070789;28;20404;-74
2022/10/06 06:22:39;;;;;;;3.92;3.55;;;14.10;99.90;;;;;;5070597;28;20802;-73
2022/10/06 06:25:05;;;;;;;5.07;3.50;;;14.10;99.90;;;;;;5081258;28;20411;-72
2022/10/06 06:27:31;;;;;;;5.70;3.80;;;14.10;99.90;;;;;;5072136;28;20424;-73
2022/10/06 06:29:57;;;;;;;4.10;3.63;;;14.20;99.90;;;;;;5081780;28;20443;-72
2022/10/06 06:32:23;;;;;;;3.65;3.30;;;14.20;99.90;;;;;;5088788;28;20393;-73
2022/10/06 06:34:51;;;;;;;4.80;3.83;;;14.20;99.90;;;;;;5062394;28;20796;-73
2022/10/06 06:37:17;;;;;;;4.10;3.70;;;14.20;99.90;;;;;;5066396;28;20408;-73
2022/10/06 06:39:42;;;;;;;6.23;3.63;;;14.20;99.90;;;;;;5075041;28;20406;-74
2022/10/06 06:42:08;;;;;;;5.83;4.10;;;14.30;99.90;;;;;;5054782;28;20950;-74
2022/10/06 06:44:34;;;;;;;4.15;3.75;;;14.30;99.90;;;;;;5065401;28;20423;-73
2022/10/06 06:47:01;;;;;;;5.97;4.27;;;14.50;99.90;;;;;;5090000;28;21631;-73
2022/10/06 06:49:27;;;;;;;4.33;3.30;;;14.50;99.90;;;;;;5086792;28;20482;-73
2022/10/06 06:51:53;;;;;;;3.65;3.35;;;14.50;99.90;;;;;;5070092;28;20392;-73
2022/10/06 06:54:19;;;;;;;4.25;3.80;;;14.60;99.90;;;;;;5069159;28;20388;-73
2022/10/06 06:56:46;;;;;;;3.88;3.50;;;14.60;99.90;;;;;;5052346;28;20877;-73
2022/10/06 06:59:12;;;;;;;6.35;3.70;;;14.60;99.90;;;;;;5070096;28;20388;-73
2022/10/06 07:01:43;;;;;;;5.38;3.40;;;14.70;99.90;;;;;;5070139;28;20382;-73
2022/10/06 07:04:09;;;;;;;5.53;4.13;;;14.80;99.90;;;;;;5069939;28;20402;-75
2022/10/06 07:06:36;;;;;;;3.88;3.58;;;14.90;99.90;;;;;;5070046;28;20387;-74
2022/10/06 07:09:03;;;;;;;5.10;3.60;;;15.30;99.90;;;;;;5060376;28;20398;-74
2022/10/06 07:11:36;;;;;;;4.22;3.00;;;15.60;99.90;;;;;;5069854;28;20384;-73
2022/10/06 07:14:07;;;;;;;5.43;3.53;;;15.70;99.90;;;;;;5069383;28;20410;-73
2022/10/06 07:25:06;;;;;;;3.80;3.40;;;16.00;99.90;;;;;;5069216;28;20445;-74
2022/10/06 07:27:36;;;;;;;3.47;3.17;;;16.00;99.90;;;;;;5066496;28;20478;-74
2022/10/06 07:30:06;;;;;;;5.97;3.80;;;16.00;99.90;;;;;;5054628;28;20818;-74
2022/10/06 07:32:32;;;;;;;5.15;3.67;;;15.90;99.90;;;;;;5059161;28;20391;-74
2022/10/06 07:34:57;;;;;;;3.95;3.45;;;15.90;99.90;;;;;;5066258;28;20391;-74
2022/10/06 07:37:24;;;;;;;5.80;3.58;;;15.90;99.90;;;;;;5070130;28;20465;-74
2022/10/06 07:39:50;;;;;;;6.47;4.03;;;15.90;99.90;;;;;;5067218;28;20434;-73
2022/10/06 07:42:17;;;;;;;5.65;3.25;;;15.90;99.90;;;;;;5067364;28;20796;-74
2022/10/06 07:45:36;;;;;;;7.65;3.95;;;15.90;99.90;;;;;;5068007;28;20379;-74
2022/10/06 07:47:29;;;;;;;6.97;3.85;;;15.80;99.90;;;;;;5069425;28;20395;-74
2022/10/06 07:49:57;;;;;;;3.95;3.40;;;15.90;99.90;;;;;;5069591;28;20395;-74
2022/10/06 07:52:23;;;;;;;6.38;4.03;;;15.80;99.90;;;;;;5048892;28;20391;-74
2022/10/06 07:54:49;;;;;;;7.20;3.40;;;15.80;99.90;;;;;;5067652;28;20433;-74
2022/10/06 07:57:15;;;;;;;4.55;3.00;;;15.80;99.90;;;;;;5063873;28;20895;-74
2022/10/06 07:59:40;;;;;;;5.65;3.22;;;15.80;99.90;;;;;;5067900;28;20411;-73
2022/10/06 08:02:06;;;;;;;5.10;3.43;;;15.80;99.90;;;;;;5068053;28;20383;-74
2022/10/06 08:04:31;;;;;;;7.00;4.30;;;15.80;99.90;;;;;;5066253;28;20767;-73
2022/10/06 08:06:57;;;;;;;7.40;3.38;;;15.70;99.90;;;;;;5068739;28;20395;-73
2022/10/06 08:09:23;;;;;;;7.13;3.93;;;15.80;99.90;;;;;;5069327;28;20384;-73
2022/10/06 08:11:48;;;;;;;7.87;3.37;;;15.90;99.90;;;;;;5069791;28;20382;-73
2022/10/06 08:14:14;;;;;;;3.50;3.20;;;15.90;99.90;;;;;;5069698;28;20749;-74
2022/10/06 08:16:39;;;;;;;6.05;3.70;;;15.90;99.90;;;;;;5069790;28;20384;-73
2022/10/06 08:19:05;;;;;;;5.30;3.30;;;15.90;99.90;;;;;;5051264;28;20404;-73
2022/10/06 08:21:33;;;;;;;4.30;3.13;;;15.90;99.90;;;;;;5069512;28;20426;-73
2022/10/06 08:24:00;;;;;;;7.05;3.80;;;15.90;99.90;;;;;;5031854;28;20382;-73
2022/10/06 08:26:27;;;;;;;4.20;3.40;;;16.00;99.90;;;;;;5031627;28;20491;-73
2022/10/06 08:29:04;;;;;;;8.50;3.85;;;16.00;99.90;;;;;;5049640;28;20439;-73
2022/10/06 08:31:31;;;;;;;7.50;3.42;;;16.00;99.90;;;;;;5033169;28;20409;-73
2022/10/06 08:33:57;;;;;;;3.33;2.92;;;16.00;99.90;;;;;;5054605;28;20398;-73
2022/10/06 08:36:28;;;;;;;7.40;3.28;;;16.10;99.90;;;;;;5073193;28;20398;-73
2022/10/06 08:38:53;;;;;;;4.95;3.28;;;16.10;99.90;;;;;;5055169;28;20954;-73
2022/10/06 08:41:41;;;;;;;8.00;4.20;;;16.20;99.90;;;;;;5072916;28;20464;-73
2022/10/06 08:44:19;;;;;;;3.83;3.10;;;16.20;99.90;;;;;;5072821;28;20878;-73
2022/10/06 08:46:56;;;;;;;4.75;3.40;;;16.40;99.90;;;;;;5072721;28;20382;-73
2022/10/06 08:49:26;;;;;;;5.57;3.35;;;16.40;99.90;;;;;;5073082;28;20379;-73
2022/10/06 08:52:31;;;;;;;4.50;2.70;;;16.40;99.90;;;;;;5072756;28;20440;-73
2022/10/06 08:55:21;;;;;;;6.90;3.50;;;16.40;99.90;;;;;;5052816;28;20979;-73
2022/10/06 08:58:14;;;;;;;6.03;3.70;;;16.20;99.90;;;;;;5052711;28;20484;-72
2022/10/06 09:00:39;;;;;;;3.55;3.15;;;16.20;99.90;;;;;;5056482;28;20406;-72
2022/10/06 09:03:10;;;;;;;6.40;3.10;;;16.20;99.90;;;;;;5070941;28;20377;-73
2022/10/06 09:05:36;;;;;;;7.50;3.60;;;16.40;99.90;;;;;;5093085;28;20374;-73
2022/10/06 09:08:26;;;;;;;5.30;3.20;;;16.40;99.90;;;;;;5072676;28;20766;-74
2022/10/06 09:11:19;;;;;;;6.43;3.50;;;16.50;99.90;;;;;;5077168;28;20406;-73
2022/10/06 09:13:53;;;;;;;6.43;3.40;;;16.60;99.90;;;;;;5085605;28;20757;-74
2022/10/06 09:16:27;;;;;;;5.70;3.50;;;16.50;99.90;;;;;;5084530;28;20447;-74
2022/10/06 09:19:11;;;;;;;6.50;3.20;;;16.40;99.90;;;;;;5072163;28;20400;-74
2022/10/06 09:21:45;;;;;;;4.00;3.60;;;16.60;99.90;;;;;;5054012;28;20388;-73
2022/10/06 09:24:17;;;;;;;5.28;3.33;;;16.60;99.90;;;;;;5072225;28;20384;-72
2022/10/06 09:26:46;;;;;;;4.20;3.80;;;16.60;99.90;;;;;;5053692;28;20416;-73
2022/10/06 09:29:13;;;;;;;5.47;4.00;;;16.40;99.90;;;;;;5054218;28;20458;-73
2022/10/06 09:31:42;;;;;;;6.28;3.85;;;16.60;99.90;;;;;;5069345;28;20398;-72
2022/10/06 09:34:33;;;;;;;5.30;3.40;;;16.50;99.90;;;;;;5057250;28;20403;-72
2022/10/06 09:37:03;;;;;;;5.30;3.70;;;16.40;99.90;;;;;;5082281;28;20410;-73
2022/10/06 09:39:35;;;;;;;6.82;3.67;;;16.50;99.90;;;;;;5085640;28;20769;-73
2022/10/06 09:42:10;;;;;;;4.78;3.03;;;16.40;99.90;;;;;;5074835;28;20401;-73
2022/10/06 09:44:51;;;;;;;8.05;2.90;;;16.50;99.90;;;;;;5058099;28;20535;-73
2022/10/06 09:47:33;;;;;;;4.47;2.70;;;16.50;99.90;;;;;;5084927;28;20399;-74
2022/10/06 09:50:02;;;;;;;5.55;2.78;;;16.50;99.90;;;;;;5053147;28;20400;-73
2022/10/06 09:52:28;;;;;;;4.45;2.85;;;16.50;99.90;;;;;;5071551;28;20389;-73
2022/10/06 09:55:13;;;;;;;5.40;3.07;;;16.60;99.90;;;;;;5071425;28;20375;-73
2022/10/06 09:57:48;;;;;;;4.20;2.70;;;16.60;99.90;;;;;;5053515;28;20401;-73
2022/10/06 10:00:37;;;;;;;4.85;3.05;;;16.60;99.90;;;;;;5071576;28;20860;-73
2022/10/06 10:03:10;;;;;;;3.88;2.50;;;16.70;99.90;;;;;;5070824;28;20419;-73
2022/10/06 10:05:38;;;;;;;3.00;2.50;;;16.70;99.90;;;;;;5071604;28;20459;-73
2022/10/06 10:08:13;;;;;;;3.85;2.72;;;16.60;99.90;;;;;;5071301;28;20869;-74
2022/10/06 10:10:39;;;;;;;3.97;2.40;;;16.60;99.90;;;;;;5071450;28;20478;-73
2022/10/06 10:13:25;;;;;;;7.68;2.65;;;16.60;99.90;;;;;;5071537;28;20407;-73
2022/10/06 10:16:00;;;;;;;2.90;2.20;;;16.70;99.90;;;;;;5071183;28;20388;-73
2022/10/06 10:18:29;;;;;;;4.43;2.40;;;16.90;99.90;;;;;;5070870;28;20395;-72
2022/10/06 10:21:03;;;;;;;3.30;2.10;;;16.90;99.90;;;;;;5071099;28;20400;-72
2022/10/06 10:23:39;;;;;;;4.32;2.50;;;17.00;99.90;;;;;;5071312;28;20383;-73
2022/10/06 10:26:12;;;;;;;6.38;2.65;;;17.00;99.90;;;;;;5053171;28;20387;-73
2022/10/06 10:28:49;;;;;;;5.28;2.17;;;17.20;99.90;;;;;;5070634;28;20399;-73
2022/10/06 10:31:41;;;;;;;5.93;2.33;;;17.30;99.90;;;;;;5071017;28;20368;-73
2022/10/06 10:34:28;;;;;;;6.00;2.10;;;17.40;99.90;;;;;;5070500;28;20380;-73
2022/10/06 10:37:03;;;;;;;5.22;2.05;;;17.50;99.90;;;;;;5070492;28;20444;-72
2022/10/06 10:39:38;;;;;;;4.70;2.30;;;17.50;99.90;;;;;;5070616;28;20889;-72
2022/10/06 10:42:16;;;;;;;3.55;2.40;;;17.60;99.90;;;;;;5052379;28;20954;-72
2022/10/06 10:44:52;;;;;;;5.00;2.25;;;17.70;99.90;;;;;;5069791;28;20387;-72
2022/10/06 10:47:48;;;;;;;4.43;2.45;;;17.80;99.90;;;;;;5050471;28;20794;-73
2022/10/06 10:50:26;;;;;;;4.72;2.60;;;17.60;99.90;;;;;;5033975;28;20390;-73
2022/10/06 10:53:21;;;;;;;3.50;2.40;;;17.70;99.90;;;;;;5050758;28;20738;-74
2022/10/06 10:55:51;;;;;;;8.05;2.67;;;17.90;99.90;;;;;;5023394;28;20813;-72
2022/10/06 10:58:22;;;;;;;6.05;2.92;;;18.30;99.90;;;;;;5070509;28;20384;-72
2022/10/06 11:00:54;;;;;;;4.93;2.53;;;18.70;99.90;;;;;;5070686;28;20438;-73
2022/10/06 11:03:19;;;;;;;3.30;2.00;;;18.50;99.90;;;;;;5070123;28;20429;-73
2022/10/06 11:06:27;;;;;;;4.60;2.30;;;19.10;99.90;;;;;;5052593;28;20380;-73
2022/10/06 11:08:56;;;;;;;3.58;2.20;;;19.40;99.90;;;;;;5005435;28;20503;-72
2022/10/06 11:11:22;;;;;;;5.20;2.20;;;19.20;99.90;;;;;;5049791;28;20398;-73
2022/10/06 11:13:53;;;;;;;4.70;1.93;;;19.40;99.90;;;;;;5069724;28;20739;-72
2022/10/06 11:16:42;;;;;;;3.90;1.70;;;19.40;99.90;;;;;;5070316;28;20402;-73
2022/10/06 11:19:33;;;;;;;4.40;1.50;;;19.10;99.90;;;;;;5070151;28;20722;-73
2022/10/06 11:22:29;;;;;;;3.10;1.98;;;18.80;99.90;;;;;;5066365;28;20431;-73
2022/10/06 11:25:35;;;;;;;2.95;1.50;;;18.80;99.90;;;;;;5049428;28;20447;-73
2022/10/06 11:28:09;;;;;;;2.70;1.53;;;19.60;99.90;;;;;;5042642;28;20423;-73
2022/10/06 11:31:05;;;;;;;5.60;1.50;;;21.10;99.90;;;;;;5070208;28;20446;-73
2022/10/06 11:33:51;;;;;;;2.17;1.60;;;21.10;99.90;;;;;;5046115;28;20384;-74
2022/10/06 11:36:57;;;;;;;3.22;1.65;;;21.70;99.90;;;;;;5069221;28;20399;-73
2022/10/06 11:39:59;;;;;;;3.78;1.98;;;20.40;99.90;;;;;;5034405;28;20391;-73
2022/10/06 11:42:33;;;;;;;2.25;1.60;;;21.00;99.90;;;;;;5069615;28;20387;-72
2022/10/06 11:45:12;;;;;;;6.03;2.00;;;21.40;99.90;;;;;;5051869;28;20380;-73
2022/10/06 11:47:47;;;;;;;6.68;1.90;;;20.50;99.90;;;;;;5069489;28;20399;-73
2022/10/06 11:50:30;;;;;;;4.60;1.70;;;21.60;99.20;;;;;;5070038;28;20749;-73
2022/10/06 11:52:56;;;;;;;2.80;1.65;;;21.30;98.40;;;;;;5069490;28;20372;-73
2022/10/06 11:55:25;;;;;;;2.88;1.52;;;20.90;97.60;;;;;;5069954;28;20409;-74
2022/10/06 11:58:13;;;;;;;4.10;1.80;;;20.60;98.50;;;;;;5069628;28;20396;-74
2022/10/06 12:00:43;;;;;;;3.85;1.80;;;21.50;98.10;;;;;;5069605;28;20486;-74
2022/10/06 12:03:27;;;;;;;3.40;1.65;;;21.30;96.70;;;;;;5068766;28;20434;-73
2022/10/06 12:05:53;;;;;;;4.20;1.70;;;21.20;93.50;;;;;;5051655;28;20402;-73
2022/10/06 12:08:40;;;;;;;5.10;2.25;;;21.70;93.40;;;;;;5070295;28;20387;-74
2022/10/06 12:11:41;;;;;;;2.67;1.60;;;21.30;92.90;;;;;;5055763;28;20416;-74
2022/10/06 12:14:55;;;;;;;4.70;2.20;;;21.10;93.80;;;;;;5071787;28;20440;-72
2022/10/06 12:17:26;;;;;;;3.88;2.00;;;20.20;98.40;;;;;;5023190;28;20431;-72
2022/10/06 12:20:12;;;;;;;4.28;2.20;;;20.00;99.90;;;;;;5081468;28;20442;-73
2022/10/06 12:22:48;;;;;;;3.05;1.70;;;20.10;99.90;;;;;;5040530;28;20735;-72
2022/10/06 12:25:25;;;;;;;3.20;2.05;;;20.00;99.90;;;;;;5067271;28;20824;-73
2022/10/06 12:28:11;;;;;;;2.88;2.38;;;19.90;99.90;;;;;;5068793;28;20429;-72
2022/10/06 12:30:52;;;;;;;3.60;2.00;;;20.10;99.90;;;;;;5072968;28;20461;-71
2022/10/06 12:33:19;;;;;;;4.43;2.20;;;20.50;99.90;;;;;;5070307;28;20501;-73
2022/10/06 12:35:45;;;;;;;3.05;2.40;;;20.40;99.90;;;;;;5070388;28;20801;-73
2022/10/06 12:38:32;;;;;;;3.50;2.20;;;19.90;99.90;;;;;;5072197;28;20734;-73
2022/10/06 12:41:00;;;;;;;2.80;2.00;;;20.40;99.90;;;;;;5070330;28;20889;-73
2022/10/06 12:43:31;;;;;;;3.83;2.38;;;20.60;99.90;;;;;;5070035;28;20457;-73
2022/10/06 12:46:03;;;;;;;4.53;2.03;;;20.60;99.90;;;;;;5081485;28;20408;-72
2022/10/06 12:49:07;;;;;;;2.75;1.77;;;20.00;99.90;;;;;;5060155;28;20407;-72
2022/10/06 12:51:39;;;;;;;2.80;1.75;;;19.70;99.90;;;;;;5068065;28;20380;-71
2022/10/06 12:54:19;;;;;;;2.40;1.90;;;20.30;99.90;;;;;;5058827;28;20391;-72
2022/10/06 12:57:01;;;;;;;4.10;2.35;;;20.60;99.90;;;;;;5072565;28;20380;-72
2022/10/06 12:59:33;;;;;;;2.97;1.70;;;20.50;99.90;;;;;;5071722;28;20392;-72
2022/10/06 13:02:03;;;;;;;2.80;1.83;;;20.60;99.90;;;;;;5071878;28;20414;-72
2022/10/06 13:04:35;;;;;;;3.55;1.70;;;20.30;99.90;;;;;;5069231;28;20392;-72
2022/10/06 13:07:22;;;;;;;3.30;2.13;;;20.60;99.90;;;;;;5061851;28;20792;-72
2022/10/06 13:09:51;;;;;;;4.55;1.90;;;20.70;99.90;;;;;;5065796;28;20453;-72
2022/10/06 13:12:25;;;;;;;4.15;1.92;;;20.40;99.90;;;;;;5071276;28;20404;-71
2022/10/06 13:15:22;;;;;;;5.20;2.28;;;20.20;99.90;;;;;;5071099;28;20940;-72
2022/10/06 13:17:55;;;;;;;3.03;1.70;;;20.60;99.90;;;;;;5070508;28;20392;-72
2022/10/06 13:20:38;;;;;;;3.60;2.00;;;20.90;99.90;;;;;;5071466;28;20412;-72